Springfield, OR (97478)

6:48 AM PDT on May 29, 2015 (GMT -0700)
Walterville off Camp Creek Rd | | Change Station
CLOSE
Current Station
Personal Weather Station
Location: Springfield, OR
Elevation: 564 ft
Nearby Weather Stations

Elev 564 ft 44.07 °N, 122.84 °W | Updated 4 seconds ago

Clear
Clear
53.5 °F
Feels Like 53.5 °F
N
0.0
Wind Variable Wind from South
Gusts 0.0 mph

Today
High -- | Low -- °F
--% Chance of Precip.
Yesterday
High -- | Low -- °F
Precip. -- in
5:33 AM 8:45 PM
Waxing Gibbous, 83% visible
Pressure 30.00 in
Visibility 10.0 miles
Clouds Scattered Clouds 25000 ft
Dew Point 52 °F
Humidity 95%
Rainfall 0.00 in
Snow Depth Not available.
UV 0 out of 12
Pollen 7.30 out of 12
Air Quality Not available.
Flu Activity No Activity
METAR KEUG 291254Z 20006KT 10SM SCT250 11/09 A3000 RMK AO2 SLP159 T01060094

More Conditions Fewer Conditions

Pressure 30.00 in
Visibility 10.0 miles
Clouds Scattered Clouds 25000 ft
Dew Point 52 °F
Humidity 95%
Rainfall 0.00 in
Snow Depth Not available.
UV 0 out of 12
Pollen 7.30 out of 12
Air Quality Not available.
Flu Activity No Activity
METAR KEUG 291254Z 20006KT 10SM SCT250 11/09 A3000 RMK AO2 SLP159 T01060094

More Conditions Fewer Conditions

10-Day Weather Forecast

Almanac

Astronomy

May. 29, 2015 Rise Set
Actual Time
Civil Twilight
Nautical Twilight
Astronomical Twilight
Moon
Length of Visible Light
Length of Day
Tomorrow will be .
, % of the Moon is Illuminated

Today's Extremes

State Highs State Lows

Community

WunderPhotos

Upload Photos

1,825,262 photos uploaded!

WunderBlogs® & News

Nearby

Air Quality

  Air Quality AQ Index Pollutant
Not available.

Snow Depth

Station Depth Elevation

Earthquake Activity

City Distance Mag. Time & Date
Minimum magnitude displayed is 2.5.

Coastal Water Temperatures

Place Temperature

Stations

Nearby Weather Stations

Station Location Temp. Windchill Dew Point Humidity Wind Precip. Elev Updated Type